createdAt,value
2022-10-09T03:50:29.139Z,6.30
2022-10-09T03:53:04.768Z,6.40
2022-10-09T03:55:33.303Z,6.30
2022-10-09T03:58:01.895Z,6.40
2022-10-09T04:00:31.164Z,6.40
2022-10-09T04:02:59.859Z,6.40
2022-10-09T04:05:30.781Z,6.40
2022-10-09T04:07:59.221Z,6.30
2022-10-09T04:10:27.650Z,6.30
2022-10-09T04:12:56.206Z,6.20
2022-10-09T04:15:24.501Z,6.20
2022-10-09T04:17:53.136Z,6.20
2022-10-09T04:20:22.981Z,6.00
2022-10-09T04:22:52.967Z,6.20
2022-10-09T04:25:21.590Z,6.20
2022-10-09T04:27:50.127Z,6.20
2022-10-09T04:30:18.498Z,6.20
2022-10-09T04:32:48.738Z,6.20
2022-10-09T04:35:18.541Z,6.10
2022-10-09T04:37:46.774Z,6.10
2022-10-09T04:40:16.841Z,6.10
2022-10-09T04:42:45.151Z,6.10
2022-10-09T04:45:13.355Z,6.10
2022-10-09T04:47:41.703Z,6.10
2022-10-09T04:50:11.047Z,6.10
2022-10-09T04:52:39.335Z,6.20
2022-10-09T04:55:08.493Z,6.10
2022-10-09T04:57:38.912Z,6.10
2022-10-09T05:00:08.199Z,6.00
2022-10-09T05:02:36.782Z,5.10
2022-10-09T05:05:06.929Z,6.00
2022-10-09T05:07:35.191Z,6.10
2022-10-09T05:10:05.925Z,6.10
2022-10-09T05:12:34.196Z,6.10
2022-10-09T05:15:04.009Z,6.00
2022-10-09T05:17:32.354Z,6.00
2022-10-09T05:20:00.627Z,6.00
2022-10-09T05:22:28.861Z,6.30
2022-10-09T05:24:57.028Z,5.90
2022-10-09T05:27:25.533Z,5.90
2022-10-09T05:29:54.857Z,5.90
2022-10-09T05:32:24.481Z,5.80
2022-10-09T05:34:52.739Z,5.80
2022-10-09T05:37:21.096Z,5.80
2022-10-09T05:39:49.354Z,5.90
2022-10-09T05:42:17.590Z,5.90
2022-10-09T05:44:45.863Z,5.90
2022-10-09T05:47:17.936Z,5.90
2022-10-09T05:49:47.686Z,6.00
2022-10-09T05:52:16.083Z,6.00
2022-10-09T05:54:44.377Z,6.00
2022-10-09T05:57:12.617Z,6.10
2022-10-09T05:59:40.853Z,6.20
2022-10-09T06:02:10.362Z,6.20
2022-10-09T06:04:38.559Z,6.30
2022-10-09T06:07:08.103Z,6.30
2022-10-09T06:09:36.586Z,6.40
2022-10-09T06:12:05.234Z,6.50
2022-10-09T06:14:33.786Z,6.70
2022-10-09T06:17:02.582Z,7.00
2022-10-09T06:19:30.923Z,8.10
2022-10-09T06:21:59.271Z,9.40
2022-10-09T06:24:29.626Z,10.70
2022-10-09T06:26:58.566Z,12.00
2022-10-09T06:29:27.213Z,13.30
2022-10-09T06:31:56.002Z,14.40
2022-10-09T06:34:24.603Z,15.00
2022-10-09T06:36:53.322Z,14.80
2022-10-09T06:39:22.880Z,15.40
2022-10-09T06:41:52.722Z,15.90
2022-10-09T06:44:21.159Z,16.70
2022-10-09T06:46:52.683Z,17.50
2022-10-09T06:49:20.915Z,18.30
2022-10-09T06:51:49.438Z,19.00
2022-10-09T06:54:18.419Z,19.10
2022-10-09T06:56:46.996Z,19.40
2022-10-09T06:59:16.911Z,19.90
2022-10-09T07:01:47.489Z,19.60
2022-10-09T07:04:17.800Z,20.50
2022-10-09T07:06:48.437Z,21.20
2022-10-09T07:09:17.565Z,20.80
2022-10-09T07:11:49.407Z,21.10
2022-10-09T07:14:20.916Z,20.60
2022-10-09T07:16:50.300Z,19.70
2022-10-09T07:19:19.837Z,17.90
2022-10-09T07:21:49.819Z,16.30
2022-10-09T07:24:20.640Z,15.50
2022-10-09T07:26:49.756Z,14.70
2022-10-09T07:29:20.945Z,13.60
2022-10-09T07:31:49.976Z,12.90
2022-10-09T07:34:18.366Z,12.60
2022-10-09T07:36:52.068Z,12.40
2022-10-09T07:39:20.498Z,12.40
2022-10-09T07:41:51.682Z,12.40
2022-10-09T07:44:21.419Z,12.20
2022-10-09T07:46:51.611Z,12.10
2022-10-09T07:49:20.169Z,12.00
2022-10-09T07:51:48.502Z,12.00
2022-10-09T07:54:16.981Z,11.90
2022-10-09T07:56:45.323Z,11.90
2022-10-09T07:59:16.859Z,11.90
2022-10-09T08:01:46.610Z,11.90
2022-10-09T08:04:15.063Z,11.90
2022-10-09T08:06:43.411Z,11.80
2022-10-09T08:09:12.961Z,11.80
2022-10-09T08:11:41.394Z,11.80
2022-10-09T08:14:18.780Z,11.60
2022-10-09T08:16:49.399Z,11.50
2022-10-09T08:19:17.755Z,11.50
2022-10-09T08:21:46.141Z,11.80
2022-10-09T08:24:14.959Z,11.60
2022-10-09T08:26:44.392Z,11.60
2022-10-09T08:29:14.062Z,11.50
2022-10-09T08:31:42.893Z,11.50
2022-10-09T08:34:12.791Z,11.40
2022-10-09T08:36:41.463Z,11.40
2022-10-09T08:39:09.817Z,11.40
2022-10-09T08:41:48.022Z,11.40
2022-10-09T08:44:25.371Z,11.60
2022-10-09T08:47:05.968Z,11.40
2022-10-09T08:49:43.564Z,11.40
2022-10-09T08:52:25.670Z,11.50
2022-10-09T08:54:57.172Z,11.60
2022-10-09T08:57:32.692Z,11.60
2022-10-09T09:00:01.104Z,11.70
2022-10-09T09:02:42.474Z,11.80
2022-10-09T09:05:29.136Z,11.90
2022-10-09T09:08:05.427Z,12.00
2022-10-09T09:10:42.515Z,12.10
2022-10-09T09:13:31.129Z,12.10
2022-10-09T09:16:07.935Z,12.10
2022-10-09T09:18:44.313Z,12.30
2022-10-09T09:21:27.011Z,12.30
2022-10-09T09:23:55.349Z,12.40
2022-10-09T09:26:24.516Z,12.50
2022-10-09T09:28:57.956Z,12.50
2022-10-09T09:31:29.875Z,12.60
2022-10-09T09:34:04.951Z,12.70
2022-10-09T09:36:41.283Z,12.70
2022-10-09T09:39:55.691Z,12.70
2022-10-09T09:42:04.321Z,12.80
2022-10-09T09:44:34.658Z,12.80
2022-10-09T09:47:03.785Z,12.90
2022-10-09T09:49:32.257Z,12.90
2022-10-09T09:52:03.005Z,12.90
2022-10-09T09:54:32.156Z,13.00
2022-10-09T09:57:14.019Z,13.10
2022-10-09T09:59:45.745Z,13.10
2022-10-09T10:02:18.314Z,13.20
2022-10-09T10:04:56.674Z,13.30
2022-10-09T10:07:34.583Z,13.30
2022-10-09T10:10:07.598Z,13.40
2022-10-09T10:12:40.626Z,13.50
2022-10-09T10:15:19.486Z,13.50
2022-10-09T10:17:49.945Z,13.60
2022-10-09T10:20:19.354Z,13.60
2022-10-09T10:22:56.160Z,13.60
2022-10-09T10:25:28.898Z,13.70
2022-10-09T10:28:02.077Z,13.80
2022-10-09T10:30:31.602Z,13.80
2022-10-09T10:33:05.317Z,13.70
2022-10-09T10:35:37.398Z,13.80
2022-10-09T10:38:13.573Z,13.90
2022-10-09T10:40:47.764Z,13.90
2022-10-09T10:43:31.009Z,14.00
2022-10-09T10:46:05.818Z,14.00
2022-10-09T10:48:39.552Z,14.00
2022-10-09T10:51:19.726Z,14.10
2022-10-09T10:54:05.370Z,14.20
2022-10-09T10:56:39.970Z,14.20
2022-10-09T10:59:26.839Z,14.30
2022-10-09T11:02:12.085Z,14.30
2022-10-09T11:04:50.912Z,14.40
2022-10-09T11:07:30.129Z,14.60
2022-10-09T11:10:08.538Z,14.70
2022-10-09T11:12:48.112Z,14.80
2022-10-09T11:15:25.169Z,14.70
2022-10-09T11:18:00.548Z,14.60
2022-10-09T11:21:00.325Z,14.60
2022-10-09T11:23:47.634Z,14.70
2022-10-09T11:26:29.534Z,14.80
2022-10-09T11:29:04.150Z,14.80
2022-10-09T11:31:38.035Z,14.90
2022-10-09T11:34:12.643Z,14.80
2022-10-09T11:36:44.255Z,14.70
2022-10-09T11:39:18.285Z,14.60
2022-10-09T11:41:50.263Z,14.50
2022-10-09T11:44:37.013Z,14.50
2022-10-09T11:47:17.293Z,14.60
2022-10-09T11:50:01.247Z,14.70
2022-10-09T11:52:36.864Z,14.70
2022-10-09T11:55:19.737Z,15.10
2022-10-09T11:57:50.274Z,14.90
2022-10-09T12:00:30.900Z,15.00
2022-10-09T12:03:01.984Z,15.10
2022-10-09T12:05:37.446Z,15.10
2022-10-09T12:08:15.415Z,15.10
2022-10-09T12:10:54.264Z,15.10
2022-10-09T12:13:45.601Z,15.00
2022-10-09T12:16:36.865Z,15.00
2022-10-09T12:19:13.489Z,14.90
2022-10-09T12:21:48.592Z,14.80
2022-10-09T12:24:19.223Z,14.80
2022-10-09T12:26:49.108Z,14.90
2022-10-09T12:29:26.353Z,15.00
2022-10-09T12:32:00.407Z,15.10
2022-10-09T12:34:33.941Z,15.30
2022-10-09T12:37:11.052Z,15.30
2022-10-09T12:39:39.619Z,15.40
2022-10-09T12:42:16.412Z,15.40
2022-10-09T12:44:47.865Z,15.40
2022-10-09T12:47:21.999Z,15.30
2022-10-09T12:50:01.077Z,15.40
2022-10-09T12:52:30.052Z,15.50
2022-10-09T12:54:58.475Z,15.40
2022-10-09T12:57:28.102Z,15.40
2022-10-09T12:59:58.928Z,15.30
2022-10-09T13:02:27.564Z,15.20
2022-10-09T13:04:58.730Z,15.20
2022-10-09T13:07:29.944Z,15.20
2022-10-09T13:10:07.360Z,15.20
2022-10-09T13:12:36.553Z,15.30
2022-10-09T13:15:30.348Z,15.40
2022-10-09T13:17:58.832Z,15.50
2022-10-09T13:20:29.274Z,15.40
2022-10-09T13:22:59.521Z,15.50
2022-10-09T13:25:30.222Z,15.40
2022-10-09T13:27:59.092Z,15.30
2022-10-09T13:30:29.147Z,15.90
2022-10-09T13:32:58.476Z,15.10
2022-10-09T13:35:27.006Z,15.10
2022-10-09T13:37:55.464Z,15.10
2022-10-09T13:40:24.168Z,15.10
2022-10-09T13:42:55.816Z,15.10
2022-10-09T13:45:25.857Z,15.10
2022-10-09T13:47:55.608Z,15.10
2022-10-09T13:50:24.180Z,15.10
2022-10-09T13:52:52.609Z,15.20
2022-10-09T13:55:21.674Z,15.20
2022-10-09T13:57:50.579Z,15.20
2022-10-09T14:00:20.328Z,15.20
2022-10-09T14:02:48.689Z,15.20
2022-10-09T14:05:18.709Z,15.20
2022-10-09T14:07:47.208Z,15.30
2022-10-09T14:10:18.232Z,15.30
2022-10-09T14:12:48.963Z,15.20
2022-10-09T14:15:17.598Z,15.20
2022-10-09T14:17:46.694Z,15.10
2022-10-09T14:20:15.650Z,15.10
2022-10-09T14:22:45.401Z,15.00
2022-10-09T14:25:13.979Z,15.00
2022-10-09T14:27:44.066Z,14.90
2022-10-09T14:30:13.651Z,14.80
2022-10-09T14:32:42.008Z,14.80
2022-10-09T14:35:10.992Z,14.90
2022-10-09T14:37:42.153Z,14.90
2022-10-09T14:40:12.910Z,14.90
2022-10-09T14:42:41.748Z,14.90
2022-10-09T14:45:11.527Z,14.70
2022-10-09T14:47:39.851Z,14.60
2022-10-09T14:50:09.355Z,14.60
2022-10-09T14:52:37.881Z,14.50
2022-10-09T14:55:06.896Z,14.50
2022-10-09T14:57:36.788Z,14.40
2022-10-09T15:00:06.588Z,14.40
2022-10-09T15:02:36.379Z,14.40
2022-10-09T15:05:05.140Z,14.40
2022-10-09T15:07:33.926Z,14.40
2022-10-09T15:10:02.367Z,14.40
2022-10-09T15:12:30.840Z,14.40
2022-10-09T15:15:01.936Z,14.40
2022-10-09T15:17:30.269Z,14.40
2022-10-09T15:19:59.554Z,14.30
2022-10-09T15:22:27.879Z,14.30
2022-10-09T15:24:56.227Z,14.30
2022-10-09T15:27:24.617Z,14.30
2022-10-09T15:29:53.095Z,14.20
2022-10-09T15:32:22.930Z,14.10
2022-10-09T15:34:51.373Z,14.10
2022-10-09T15:37:19.698Z,14.10
2022-10-09T15:39:48.081Z,14.10
2022-10-09T15:42:16.661Z,14.10
2022-10-09T15:44:45.351Z,14.00
2022-10-09T15:47:16.559Z,13.90
2022-10-09T15:49:50.130Z,13.90
2022-10-09T15:52:21.639Z,13.80
2022-10-09T15:54:50.213Z,13.80
2022-10-09T15:57:18.594Z,13.70
2022-10-09T15:59:47.426Z,13.60
2022-10-09T16:02:15.953Z,13.60
2022-10-09T16:04:49.522Z,13.60
2022-10-09T16:07:17.968Z,13.50
2022-10-09T16:09:46.787Z,13.40
2022-10-09T16:12:15.381Z,13.40
2022-10-09T16:14:43.982Z,13.30
2022-10-09T16:17:18.458Z,13.90
2022-10-09T16:19:52.944Z,13.20
2022-10-09T16:22:21.374Z,13.10
2022-10-09T16:24:49.809Z,13.10
2022-10-09T16:27:19.169Z,13.00
2022-10-09T16:29:48.421Z,12.90
2022-10-09T16:32:16.782Z,12.80
2022-10-09T16:34:45.100Z,12.70
2022-10-09T16:37:14.791Z,12.70
2022-10-09T16:39:43.219Z,12.60
2022-10-09T16:42:11.679Z,12.50
2022-10-09T16:44:40.461Z,12.40
2022-10-09T16:47:09.187Z,12.40
2022-10-09T16:49:37.627Z,12.30
2022-10-09T16:52:06.496Z,12.20
2022-10-09T16:54:36.311Z,12.20
2022-10-09T16:57:04.814Z,12.10
2022-10-09T16:59:33.347Z,12.10
2022-10-09T17:02:02.522Z,12.10
2022-10-09T17:04:44.205Z,12.00
2022-10-09T17:07:13.268Z,11.90
2022-10-09T17:09:43.269Z,11.80
2022-10-09T17:12:13.372Z,11.80
2022-10-09T17:14:42.563Z,11.70
2022-10-09T17:17:12.718Z,11.60
2022-10-09T17:19:42.020Z,11.60
2022-10-09T17:22:10.495Z,11.60
2022-10-09T17:24:40.452Z,11.50
2022-10-09T17:27:10.903Z,11.50
2022-10-09T17:29:41.358Z,11.40
2022-10-09T17:32:09.672Z,11.40
2022-10-09T17:34:43.108Z,11.30
2022-10-09T17:37:12.422Z,11.30
2022-10-09T17:39:44.160Z,11.20
2022-10-09T17:42:16.884Z,11.20
2022-10-09T17:44:45.185Z,11.10
2022-10-09T17:47:14.507Z,11.10
2022-10-09T17:49:43.012Z,11.10
2022-10-09T17:52:11.975Z,11.00
2022-10-09T17:54:40.512Z,10.90
2022-10-09T17:57:12.581Z,10.90
2022-10-09T17:59:44.798Z,10.90
2022-10-09T18:02:15.289Z,10.90
2022-10-09T18:04:48.663Z,10.80
2022-10-09T18:07:19.600Z,10.80
2022-10-09T18:09:47.887Z,10.70
2022-10-09T18:12:16.242Z,10.70
2022-10-09T18:14:47.042Z,10.60
2022-10-09T18:17:15.505Z,10.70
2022-10-09T18:19:44.865Z,10.60
2022-10-09T18:22:13.178Z,10.10
2022-10-09T18:24:41.615Z,10.60
2022-10-09T18:27:09.901Z,10.50
2022-10-09T18:29:38.690Z,10.50
2022-10-09T18:32:09.748Z,10.50
2022-10-09T18:34:39.297Z,10.40
2022-10-09T18:37:09.468Z,9.40
2022-10-09T18:39:37.899Z,10.40
2022-10-09T18:42:07.397Z,10.40
2022-10-09T18:44:40.323Z,10.30
2022-10-09T18:47:17.021Z,11.60
2022-10-09T18:49:50.882Z,10.30
2022-10-09T18:52:20.497Z,10.20
2022-10-09T18:54:53.230Z,10.20
2022-10-09T18:57:23.016Z,10.10
2022-10-09T18:59:55.467Z,10.10
2022-10-09T19:02:27.100Z,10.10
2022-10-09T19:04:56.003Z,10.00
2022-10-09T19:07:24.797Z,10.00
2022-10-09T19:09:57.303Z,10.00
2022-10-09T19:12:27.094Z,10.00
2022-10-09T19:14:55.528Z,9.90
2022-10-09T19:17:25.311Z,9.90
2022-10-09T19:19:53.680Z,9.90
2022-10-09T19:22:24.005Z,9.80
2022-10-09T19:24:52.540Z,9.80
2022-10-09T19:27:24.463Z,9.80
2022-10-09T19:29:55.386Z,9.80
2022-10-09T19:32:25.010Z,9.80
2022-10-09T19:34:53.738Z,9.80
2022-10-09T19:37:27.396Z,9.80
2022-10-09T19:39:58.420Z,9.80
2022-10-09T19:42:26.994Z,9.70
2022-10-09T19:44:55.363Z,9.70
2022-10-09T19:47:26.552Z,9.70
2022-10-09T19:49:55.187Z,9.60
2022-10-09T19:52:24.051Z,9.60
2022-10-09T19:54:52.825Z,9.60
2022-10-09T19:57:21.402Z,9.60
2022-10-09T19:59:51.792Z,9.60
2022-10-09T20:02:20.115Z,9.60
2022-10-09T20:04:51.197Z,9.50
2022-10-09T20:07:19.439Z,9.60
2022-10-09T20:09:48.038Z,9.60
2022-10-09T20:12:18.084Z,9.50
2022-10-09T20:14:46.945Z,9.50
2022-10-09T20:17:15.362Z,9.50
2022-10-09T20:19:45.705Z,9.40
2022-10-09T20:22:15.807Z,9.40
2022-10-09T20:24:44.113Z,9.40
2022-10-09T20:27:14.363Z,9.30
2022-10-09T20:29:43.423Z,9.40
2022-10-09T20:32:12.561Z,9.40
2022-10-09T20:34:41.063Z,9.40
2022-10-09T20:37:09.503Z,9.40
2022-10-09T20:39:39.329Z,9.40
2022-10-09T20:42:07.724Z,9.40
2022-10-09T20:44:35.922Z,9.40
2022-10-09T20:47:04.277Z,9.40
2022-10-09T20:49:32.481Z,9.40
2022-10-09T20:52:01.060Z,9.40
2022-10-09T20:54:30.495Z,9.30
2022-10-09T20:57:00.217Z,9.30
2022-10-09T20:59:31.284Z,9.30
2022-10-09T21:01:59.618Z,9.30
2022-10-09T21:04:28.047Z,9.30
2022-10-09T21:06:57.789Z,9.30
2022-10-09T21:09:30.893Z,9.30
2022-10-09T21:12:02.982Z,9.30
2022-10-09T21:14:31.443Z,9.50
2022-10-09T21:17:00.076Z,9.20
2022-10-09T21:19:28.430Z,10.50
2022-10-09T21:21:56.727Z,9.20
2022-10-09T21:24:25.513Z,9.20
2022-10-09T21:26:56.669Z,10.30
2022-10-09T21:29:28.178Z,9.10
2022-10-09T21:31:56.600Z,9.00
2022-10-09T21:34:26.185Z,9.00
2022-10-09T21:37:20.001Z,8.90
2022-10-09T21:39:47.753Z,8.90
2022-10-09T21:42:16.282Z,8.90
2022-10-09T21:44:46.001Z,8.90
2022-10-09T21:47:19.917Z,8.80
2022-10-09T21:49:48.758Z,8.70
2022-10-09T21:52:17.172Z,8.80
2022-10-09T21:54:46.423Z,8.70
2022-10-09T21:57:14.630Z,8.70
2022-10-09T21:59:43.091Z,8.70
2022-10-09T22:02:13.318Z,8.60
2022-10-09T22:04:41.551Z,8.60
2022-10-09T22:07:11.006Z,8.50
2022-10-09T22:09:39.663Z,8.50
2022-10-09T22:12:08.144Z,8.50
2022-10-09T22:14:36.445Z,8.50
2022-10-09T22:17:04.661Z,8.40
2022-10-09T22:19:34.394Z,8.40
2022-10-09T22:22:02.800Z,8.50
2022-10-09T22:24:31.439Z,8.40
2022-10-09T22:27:00.345Z,8.40
2022-10-09T22:29:29.141Z,8.50
2022-10-09T22:31:57.561Z,8.30
2022-10-09T22:34:26.071Z,8.30
2022-10-09T22:36:55.734Z,8.30
2022-10-09T22:39:24.098Z,8.20
2022-10-09T22:41:52.692Z,8.20
2022-10-09T22:44:21.221Z,8.20
2022-10-09T22:46:51.934Z,8.20
2022-10-09T22:49:20.353Z,8.20
